Terminal Aerodrome Forecast
Issued by NWS

Home | Current Version | Previous Version | Text Only | Print | Product List | Glossary On
Versions: 1 2 3 4 5 6 7 8 9 10 11 12 13 14 15 16 17 18 19 20 21
000
FTUS43 KDLH 311410 AAC
TAFBRD
TAF AMD
KBRD 311410Z 3114/0112 00000KT 5SM BR SKC
      TEMPO 3114/3115 3SM BR BKN002
     FM311500 35009KT P6SM SCT040
     FM010200 VRB02KT P6SM SKC
      TEMPO 0109/0112 3SM BR=

USA.gov is the U.S. government's official web portal to all federal, state and local government web resources and services.